sensor_id;sensor_type;location;lat;lon;timestamp;P1;durP1;ratioP1;P2;durP2;ratioP2
48777;SDS011;34578;0.000;0.000;2023-07-31T00:03:12;1.70;;;0.90;;
48777;SDS011;34578;0.000;0.000;2023-07-31T00:08:12;4.50;;;1.73;;
48777;SDS011;34578;0.000;0.000;2023-07-31T00:13:13;3.13;;;1.80;;
48777;SDS011;34578;0.000;0.000;2023-07-31T00:18:13;7.63;;;1.50;;
48777;SDS011;34578;0.000;0.000;2023-07-31T00:23:14;6.63;;;1.45;;
48777;SDS011;34578;0.000;0.000;2023-07-31T00:28:14;2.70;;;1.30;;
48777;SDS011;34578;0.000;0.000;2023-07-31T00:33:14;2.60;;;1.30;;
48777;SDS011;34578;0.000;0.000;2023-07-31T00:38:15;2.37;;;1.50;;
48777;SDS011;34578;0.000;0.000;2023-07-31T00:43:15;3.47;;;1.40;;
48777;SDS011;34578;0.000;0.000;2023-07-31T00:48:15;3.80;;;1.20;;
48777;SDS011;34578;0.000;0.000;2023-07-31T00:53:16;3.20;;;1.33;;
48777;SDS011;34578;0.000;0.000;2023-07-31T00:58:16;3.08;;;1.40;;
48777;SDS011;34578;0.000;0.000;2023-07-31T01:03:17;3.00;;;1.80;;
48777;SDS011;34578;0.000;0.000;2023-07-31T01:08:28;2.40;;;1.20;;
48777;SDS011;34578;0.000;0.000;2023-07-31T01:13:30;2.42;;;1.48;;
48777;SDS011;34578;0.000;0.000;2023-07-31T01:18:31;4.82;;;1.70;;
48777;SDS011;34578;0.000;0.000;2023-07-31T01:29:03;4.13;;;1.50;;
48777;SDS011;34578;0.000;0.000;2023-07-31T01:34:10;5.07;;;1.58;;
48777;SDS011;34578;0.000;0.000;2023-07-31T01:39:12;4.95;;;1.98;;
48777;SDS011;34578;0.000;0.000;2023-07-31T01:44:15;3.50;;;1.40;;
48777;SDS011;34578;0.000;0.000;2023-07-31T01:49:16;7.30;;;1.80;;
48777;SDS011;34578;0.000;0.000;2023-07-31T01:54:16;4.40;;;1.55;;
48777;SDS011;34578;0.000;0.000;2023-07-31T01:59:17;5.33;;;1.30;;
48777;SDS011;34578;0.000;0.000;2023-07-31T02:04:17;3.60;;;1.52;;
48777;SDS011;34578;0.000;0.000;2023-07-31T02:09:17;2.40;;;1.40;;
48777;SDS011;34578;0.000;0.000;2023-07-31T02:14:18;3.20;;;1.20;;
48777;SDS011;34578;0.000;0.000;2023-07-31T02:19:18;3.23;;;1.20;;
48777;SDS011;34578;0.000;0.000;2023-07-31T02:24:19;1.87;;;1.50;;
48777;SDS011;34578;0.000;0.000;2023-07-31T02:29:19;3.97;;;1.63;;
48777;SDS011;34578;0.000;0.000;2023-07-31T02:34:19;4.57;;;1.03;;
48777;SDS011;34578;0.000;0.000;2023-07-31T02:39:20;4.38;;;1.40;;
48777;SDS011;34578;0.000;0.000;2023-07-31T02:44:21;2.03;;;1.27;;
48777;SDS011;34578;0.000;0.000;2023-07-31T02:49:23;5.30;;;1.63;;
48777;SDS011;34578;0.000;0.000;2023-07-31T02:54:24;3.77;;;1.20;;
48777;SDS011;34578;0.000;0.000;2023-07-31T02:59:24;3.83;;;1.48;;
48777;SDS011;34578;0.000;0.000;2023-07-31T03:04:25;1.80;;;1.30;;
48777;SDS011;34578;0.000;0.000;2023-07-31T03:09:25;3.20;;;1.50;;
48777;SDS011;34578;0.000;0.000;2023-07-31T03:14:26;2.70;;;1.37;;
48777;SDS011;34578;0.000;0.000;2023-07-31T03:19:26;4.45;;;1.48;;
48777;SDS011;34578;0.000;0.000;2023-07-31T03:24:28;2.10;;;1.40;;
48777;SDS011;34578;0.000;0.000;2023-07-31T03:29:28;2.60;;;1.30;;
48777;SDS011;34578;0.000;0.000;2023-07-31T03:34:28;2.72;;;1.27;;
48777;SDS011;34578;0.000;0.000;2023-07-31T03:39:29;2.83;;;1.15;;
48777;SDS011;34578;0.000;0.000;2023-07-31T03:44:30;3.65;;;1.40;;
48777;SDS011;34578;0.000;0.000;2023-07-31T03:49:30;3.07;;;1.77;;
48777;SDS011;34578;0.000;0.000;2023-07-31T03:54:30;3.20;;;1.23;;
48777;SDS011;34578;0.000;0.000;2023-07-31T03:59:31;6.73;;;1.70;;
48777;SDS011;34578;0.000;0.000;2023-07-31T04:04:31;3.90;;;1.90;;
48777;SDS011;34578;0.000;0.000;2023-07-31T04:09:31;6.20;;;2.23;;
48777;SDS011;34578;0.000;0.000;2023-07-31T04:14:32;4.80;;;1.60;;
48777;SDS011;34578;0.000;0.000;2023-07-31T04:19:32;8.73;;;1.77;;
48777;SDS011;34578;0.000;0.000;2023-07-31T04:24:33;3.03;;;1.30;;
48777;SDS011;34578;0.000;0.000;2023-07-31T04:29:33;6.03;;;1.37;;
48777;SDS011;34578;0.000;0.000;2023-07-31T04:34:33;4.07;;;1.60;;
48777;SDS011;34578;0.000;0.000;2023-07-31T04:39:34;2.50;;;1.60;;
48777;SDS011;34578;0.000;0.000;2023-07-31T04:44:34;2.20;;;1.60;;
48777;SDS011;34578;0.000;0.000;2023-07-31T04:49:35;3.75;;;1.58;;
48777;SDS011;34578;0.000;0.000;2023-07-31T04:54:36;3.58;;;1.58;;
48777;SDS011;34578;0.000;0.000;2023-07-31T04:59:36;3.63;;;1.33;;
48777;SDS011;34578;0.000;0.000;2023-07-31T05:04:36;6.45;;;1.65;;
48777;SDS011;34578;0.000;0.000;2023-07-31T05:09:37;3.67;;;1.27;;
48777;SDS011;34578;0.000;0.000;2023-07-31T05:14:39;5.00;;;1.80;;
48777;SDS011;34578;0.000;0.000;2023-07-31T05:19:39;5.70;;;1.13;;
48777;SDS011;34578;0.000;0.000;2023-07-31T05:24:40;3.63;;;1.45;;
48777;SDS011;34578;0.000;0.000;2023-07-31T05:29:40;4.63;;;1.43;;
48777;SDS011;34578;0.000;0.000;2023-07-31T05:34:41;3.77;;;1.30;;
48777;SDS011;34578;0.000;0.000;2023-07-31T05:39:42;1.38;;;1.05;;
48777;SDS011;34578;0.000;0.000;2023-07-31T05:44:42;1.37;;;1.20;;
48777;SDS011;34578;0.000;0.000;2023-07-31T05:49:43;3.38;;;1.40;;
48777;SDS011;34578;0.000;0.000;2023-07-31T05:54:44;3.45;;;1.40;;
48777;SDS011;34578;0.000;0.000;2023-07-31T05:59:46;2.38;;;1.38;;
48777;SDS011;34578;0.000;0.000;2023-07-31T06:04:46;2.50;;;1.27;;
48777;SDS011;34578;0.000;0.000;2023-07-31T06:09:46;1.07;;;0.90;;
48777;SDS011;34578;0.000;0.000;2023-07-31T06:14:47;3.63;;;1.20;;
48777;SDS011;34578;0.000;0.000;2023-07-31T06:19:47;3.53;;;1.13;;
48777;SDS011;34578;0.000;0.000;2023-07-31T06:24:48;5.82;;;1.60;;
48777;SDS011;34578;0.000;0.000;2023-07-31T06:29:48;2.55;;;1.13;;
48777;SDS011;34578;0.000;0.000;2023-07-31T06:34:49;2.10;;;1.30;;
48777;SDS011;34578;0.000;0.000;2023-07-31T06:39:49;1.85;;;1.10;;
48777;SDS011;34578;0.000;0.000;2023-07-31T06:44:49;1.17;;;0.97;;
48777;SDS011;34578;0.000;0.000;2023-07-31T06:49:50;3.47;;;1.40;;
48777;SDS011;34578;0.000;0.000;2023-07-31T06:55:03;1.83;;;1.13;;
48777;SDS011;34578;0.000;0.000;2023-07-31T07:00:18;2.50;;;1.33;;
48777;SDS011;34578;0.000;0.000;2023-07-31T07:05:19;1.48;;;1.08;;
48777;SDS011;34578;0.000;0.000;2023-07-31T07:10:20;2.47;;;1.60;;
48777;SDS011;34578;0.000;0.000;2023-07-31T07:15:20;2.25;;;1.27;;
48777;SDS011;34578;0.000;0.000;2023-07-31T07:20:21;2.10;;;1.42;;
48777;SDS011;34578;0.000;0.000;2023-07-31T07:25:21;3.30;;;1.30;;
48777;SDS011;34578;0.000;0.000;2023-07-31T07:30:22;2.22;;;1.05;;
48777;SDS011;34578;0.000;0.000;2023-07-31T07:35:24;3.55;;;1.13;;
48777;SDS011;34578;0.000;0.000;2023-07-31T07:40:24;1.93;;;1.10;;
48777;SDS011;34578;0.000;0.000;2023-07-31T07:45:25;2.03;;;0.97;;
48777;SDS011;34578;0.000;0.000;2023-07-31T07:50:25;1.40;;;0.93;;
48777;SDS011;34578;0.000;0.000;2023-07-31T07:55:25;2.40;;;1.20;;
48777;SDS011;34578;0.000;0.000;2023-07-31T08:00:26;2.93;;;0.90;;
48777;SDS011;34578;0.000;0.000;2023-07-31T08:05:26;1.63;;;1.23;;
48777;SDS011;34578;0.000;0.000;2023-07-31T08:10:27;2.30;;;1.63;;
48777;SDS011;34578;0.000;0.000;2023-07-31T08:15:27;1.50;;;1.05;;
48777;SDS011;34578;0.000;0.000;2023-07-31T08:20:30;2.13;;;1.10;;
48777;SDS011;34578;0.000;0.000;2023-07-31T08:25:30;4.40;;;1.20;;
48777;SDS011;34578;0.000;0.000;2023-07-31T08:30:34;1.40;;;0.98;;
48777;SDS011;34578;0.000;0.000;2023-07-31T08:35:36;2.25;;;1.00;;
48777;SDS011;34578;0.000;0.000;2023-07-31T08:40:37;2.20;;;1.20;;
48777;SDS011;34578;0.000;0.000;2023-07-31T08:45:41;1.65;;;1.02;;
48777;SDS011;34578;0.000;0.000;2023-07-31T08:50:42;1.67;;;1.10;;
48777;SDS011;34578;0.000;0.000;2023-07-31T08:55:43;2.80;;;1.20;;
48777;SDS011;34578;0.000;0.000;2023-07-31T09:00:46;2.83;;;1.17;;
48777;SDS011;34578;0.000;0.000;2023-07-31T09:05:47;1.98;;;0.95;;
48777;SDS011;34578;0.000;0.000;2023-07-31T09:10:47;2.78;;;1.33;;
48777;SDS011;34578;0.000;0.000;2023-07-31T09:15:50;1.90;;;0.90;;
48777;SDS011;34578;0.000;0.000;2023-07-31T09:21:05;2.53;;;1.27;;
48777;SDS011;34578;0.000;0.000;2023-07-31T09:26:07;1.70;;;1.02;;
48777;SDS011;34578;0.000;0.000;2023-07-31T09:31:07;2.10;;;1.73;;
48777;SDS011;34578;0.000;0.000;2023-07-31T09:36:08;0.90;;;0.77;;
48777;SDS011;34578;0.000;0.000;2023-07-31T09:41:08;1.77;;;0.93;;
48777;SDS011;34578;0.000;0.000;2023-07-31T09:46:13;2.07;;;0.80;;
48777;SDS011;34578;0.000;0.000;2023-07-31T09:51:13;0.98;;;0.70;;
48777;SDS011;34578;0.000;0.000;2023-07-31T09:56:17;1.20;;;1.00;;
48777;SDS011;34578;0.000;0.000;2023-07-31T10:01:21;1.33;;;0.93;;
48777;SDS011;34578;0.000;0.000;2023-07-31T10:06:21;1.30;;;0.90;;
48777;SDS011;34578;0.000;0.000;2023-07-31T10:11:25;1.35;;;0.98;;
48777;SDS011;34578;0.000;0.000;2023-07-31T10:16:28;1.13;;;0.77;;
48777;SDS011;34578;0.000;0.000;2023-07-31T10:21:30;1.77;;;1.10;;
48777;SDS011;34578;0.000;0.000;2023-07-31T10:26:35;2.58;;;1.50;;
48777;SDS011;34578;0.000;0.000;2023-07-31T10:31:37;1.00;;;0.77;;
48777;SDS011;34578;0.000;0.000;2023-07-31T10:36:38;1.15;;;0.82;;
48777;SDS011;34578;0.000;0.000;2023-07-31T10:41:39;1.40;;;1.00;;
48777;SDS011;34578;0.000;0.000;2023-07-31T10:46:42;2.08;;;0.73;;
48777;SDS011;34578;0.000;0.000;2023-07-31T10:51:46;7.80;;;1.10;;
48777;SDS011;34578;0.000;0.000;2023-07-31T10:56:50;10.32;;;1.63;;
48777;SDS011;34578;0.000;0.000;2023-07-31T11:01:53;2.97;;;0.98;;
48777;SDS011;34578;0.000;0.000;2023-07-31T11:07:00;3.90;;;2.20;;
48777;SDS011;34578;0.000;0.000;2023-07-31T11:12:03;7.30;;;1.40;;
48777;SDS011;34578;0.000;0.000;2023-07-31T11:17:07;19.67;;;3.30;;
48777;SDS011;34578;0.000;0.000;2023-07-31T11:22:07;14.30;;;3.13;;
48777;SDS011;34578;0.000;0.000;2023-07-31T11:27:08;8.33;;;1.60;;
48777;SDS011;34578;0.000;0.000;2023-07-31T11:32:15;9.57;;;2.70;;
48777;SDS011;34578;0.000;0.000;2023-07-31T11:37:17;12.80;;;2.40;;
48777;SDS011;34578;0.000;0.000;2023-07-31T11:42:17;11.83;;;1.73;;
48777;SDS011;34578;0.000;0.000;2023-07-31T11:47:18;9.43;;;2.10;;
48777;SDS011;34578;0.000;0.000;2023-07-31T11:52:18;17.50;;;2.40;;
48777;SDS011;34578;0.000;0.000;2023-07-31T11:57:20;6.45;;;2.13;;
48777;SDS011;34578;0.000;0.000;2023-07-31T12:02:20;7.53;;;2.78;;
48777;SDS011;34578;0.000;0.000;2023-07-31T12:07:23;6.93;;;1.77;;
48777;SDS011;34578;0.000;0.000;2023-07-31T12:12:25;8.25;;;1.65;;
48777;SDS011;34578;0.000;0.000;2023-07-31T12:17:25;2.90;;;1.27;;
48777;SDS011;34578;0.000;0.000;2023-07-31T12:22:27;4.80;;;1.42;;
48777;SDS011;34578;0.000;0.000;2023-07-31T12:27:32;3.60;;;1.55;;
48777;SDS011;34578;0.000;0.000;2023-07-31T12:32:33;3.10;;;1.48;;
48777;SDS011;34578;0.000;0.000;2023-07-31T12:37:34;6.50;;;1.70;;
48777;SDS011;34578;0.000;0.000;2023-07-31T12:42:34;6.27;;;1.63;;
48777;SDS011;34578;0.000;0.000;2023-07-31T12:47:34;5.20;;;1.70;;
48777;SDS011;34578;0.000;0.000;2023-07-31T12:52:35;4.77;;;1.80;;
48777;SDS011;34578;0.000;0.000;2023-07-31T12:57:35;5.23;;;2.07;;
48777;SDS011;34578;0.000;0.000;2023-07-31T13:02:35;4.27;;;1.63;;
48777;SDS011;34578;0.000;0.000;2023-07-31T13:07:36;4.43;;;1.63;;
48777;SDS011;34578;0.000;0.000;2023-07-31T13:12:36;3.70;;;1.45;;
48777;SDS011;34578;0.000;0.000;2023-07-31T13:17:37;3.73;;;1.40;;
48777;SDS011;34578;0.000;0.000;2023-07-31T13:22:37;3.33;;;1.45;;
48777;SDS011;34578;0.000;0.000;2023-07-31T13:27:38;4.73;;;1.53;;
48777;SDS011;34578;0.000;0.000;2023-07-31T13:32:38;4.50;;;1.80;;
48777;SDS011;34578;0.000;0.000;2023-07-31T13:37:38;4.65;;;1.45;;
48777;SDS011;34578;0.000;0.000;2023-07-31T13:42:39;2.53;;;1.33;;
48777;SDS011;34578;0.000;0.000;2023-07-31T13:47:39;7.00;;;2.83;;
48777;SDS011;34578;0.000;0.000;2023-07-31T13:52:40;6.23;;;2.10;;
48777;SDS011;34578;0.000;0.000;2023-07-31T13:57:40;4.20;;;2.30;;
48777;SDS011;34578;0.000;0.000;2023-07-31T14:02:40;4.87;;;2.40;;
48777;SDS011;34578;0.000;0.000;2023-07-31T14:07:41;6.40;;;2.33;;
48777;SDS011;34578;0.000;0.000;2023-07-31T14:12:41;9.07;;;5.13;;
48777;SDS011;34578;0.000;0.000;2023-07-31T14:17:41;10.57;;;4.90;;
48777;SDS011;34578;0.000;0.000;2023-07-31T14:22:42;10.73;;;4.37;;
48777;SDS011;34578;0.000;0.000;2023-07-31T14:27:42;5.17;;;2.67;;
48777;SDS011;34578;0.000;0.000;2023-07-31T14:32:42;3.40;;;1.70;;
48777;SDS011;34578;0.000;0.000;2023-07-31T14:37:44;7.53;;;2.77;;
48777;SDS011;34578;0.000;0.000;2023-07-31T14:42:44;6.03;;;3.08;;
48777;SDS011;34578;0.000;0.000;2023-07-31T14:47:45;56.70;;;7.47;;
48777;SDS011;34578;0.000;0.000;2023-07-31T14:52:45;48.07;;;5.93;;
48777;SDS011;34578;0.000;0.000;2023-07-31T14:57:45;31.87;;;4.63;;
48777;SDS011;34578;0.000;0.000;2023-07-31T15:02:46;21.83;;;4.30;;
48777;SDS011;34578;0.000;0.000;2023-07-31T15:07:46;17.13;;;4.07;;
48777;SDS011;34578;0.000;0.000;2023-07-31T15:12:46;19.10;;;3.60;;
48777;SDS011;34578;0.000;0.000;2023-07-31T15:17:47;11.20;;;3.60;;
48777;SDS011;34578;0.000;0.000;2023-07-31T15:22:47;15.00;;;4.30;;
48777;SDS011;34578;0.000;0.000;2023-07-31T15:27:48;9.02;;;2.17;;
48777;SDS011;34578;0.000;0.000;2023-07-31T15:32:48;8.33;;;2.33;;
48777;SDS011;34578;0.000;0.000;2023-07-31T15:37:50;9.38;;;1.92;;
48777;SDS011;34578;0.000;0.000;2023-07-31T15:42:50;10.70;;;2.10;;
48777;SDS011;34578;0.000;0.000;2023-07-31T15:47:50;4.87;;;1.87;;
48777;SDS011;34578;0.000;0.000;2023-07-31T15:52:51;10.00;;;2.13;;
48777;SDS011;34578;0.000;0.000;2023-07-31T15:57:53;12.38;;;2.00;;
48777;SDS011;34578;0.000;0.000;2023-07-31T16:02:54;6.77;;;2.17;;
48777;SDS011;34578;0.000;0.000;2023-07-31T16:07:54;9.33;;;2.10;;
48777;SDS011;34578;0.000;0.000;2023-07-31T16:12:54;11.73;;;2.60;;
48777;SDS011;34578;0.000;0.000;2023-07-31T16:17:55;10.30;;;2.50;;
48777;SDS011;34578;0.000;0.000;2023-07-31T16:22:55;7.13;;;2.13;;
48777;SDS011;34578;0.000;0.000;2023-07-31T16:27:56;11.15;;;2.70;;
48777;SDS011;34578;0.000;0.000;2023-07-31T16:32:58;28.00;;;5.90;;
48777;SDS011;34578;0.000;0.000;2023-07-31T16:37:59;17.77;;;5.30;;
48777;SDS011;34578;0.000;0.000;2023-07-31T16:42:59;11.00;;;3.30;;
48777;SDS011;34578;0.000;0.000;2023-07-31T16:48:00;11.43;;;3.63;;
48777;SDS011;34578;0.000;0.000;2023-07-31T16:53:02;11.90;;;4.30;;
48777;SDS011;34578;0.000;0.000;2023-07-31T16:58:02;13.45;;;3.75;;
48777;SDS011;34578;0.000;0.000;2023-07-31T17:03:03;10.30;;;3.30;;
48777;SDS011;34578;0.000;0.000;2023-07-31T17:08:03;12.70;;;4.03;;
48777;SDS011;34578;0.000;0.000;2023-07-31T17:13:04;7.97;;;3.40;;
48777;SDS011;34578;0.000;0.000;2023-07-31T17:18:04;10.73;;;2.97;;
48777;SDS011;34578;0.000;0.000;2023-07-31T17:23:04;19.10;;;4.47;;
48777;SDS011;34578;0.000;0.000;2023-07-31T17:28:05;11.47;;;3.13;;
48777;SDS011;34578;0.000;0.000;2023-07-31T17:33:05;12.73;;;3.23;;
48777;SDS011;34578;0.000;0.000;2023-07-31T17:38:06;10.07;;;3.10;;
48777;SDS011;34578;0.000;0.000;2023-07-31T17:43:06;10.15;;;3.35;;
48777;SDS011;34578;0.000;0.000;2023-07-31T17:48:07;8.88;;;3.22;;
48777;SDS011;34578;0.000;0.000;2023-07-31T17:53:08;10.25;;;2.97;;
48777;SDS011;34578;0.000;0.000;2023-07-31T17:58:08;10.67;;;3.17;;
48777;SDS011;34578;0.000;0.000;2023-07-31T18:03:09;8.93;;;3.63;;
48777;SDS011;34578;0.000;0.000;2023-07-31T18:08:11;7.38;;;3.20;;
48777;SDS011;34578;0.000;0.000;2023-07-31T18:13:12;6.93;;;2.53;;
48777;SDS011;34578;0.000;0.000;2023-07-31T18:18:13;5.70;;;2.88;;
48777;SDS011;34578;0.000;0.000;2023-07-31T18:23:14;7.38;;;2.63;;
48777;SDS011;34578;0.000;0.000;2023-07-31T18:28:15;7.05;;;2.55;;
48777;SDS011;34578;0.000;0.000;2023-07-31T18:33:15;6.73;;;2.63;;
48777;SDS011;34578;0.000;0.000;2023-07-31T18:38:15;5.67;;;2.57;;
48777;SDS011;34578;0.000;0.000;2023-07-31T18:43:16;3.97;;;2.50;;
48777;SDS011;34578;0.000;0.000;2023-07-31T18:48:16;5.13;;;2.33;;
48777;SDS011;34578;0.000;0.000;2023-07-31T18:53:16;5.67;;;2.37;;
48777;SDS011;34578;0.000;0.000;2023-07-31T18:58:18;6.50;;;2.25;;
48777;SDS011;34578;0.000;0.000;2023-07-31T19:03:18;8.37;;;2.60;;
48777;SDS011;34578;0.000;0.000;2023-07-31T19:08:19;5.47;;;3.10;;
48777;SDS011;34578;0.000;0.000;2023-07-31T19:13:19;6.80;;;2.70;;
48777;SDS011;34578;0.000;0.000;2023-07-31T19:18:19;4.40;;;2.03;;
48777;SDS011;34578;0.000;0.000;2023-07-31T19:23:20;3.60;;;2.20;;
48777;SDS011;34578;0.000;0.000;2023-07-31T19:28:21;5.68;;;2.30;;
48777;SDS011;34578;0.000;0.000;2023-07-31T19:33:23;8.02;;;2.60;;
48777;SDS011;34578;0.000;0.000;2023-07-31T19:38:24;5.63;;;2.37;;
48777;SDS011;34578;0.000;0.000;2023-07-31T19:43:25;3.45;;;2.25;;
48777;SDS011;34578;0.000;0.000;2023-07-31T19:48:25;3.70;;;2.13;;
48777;SDS011;34578;0.000;0.000;2023-07-31T19:53:25;4.30;;;1.97;;
48777;SDS011;34578;0.000;0.000;2023-07-31T19:58:26;5.07;;;1.80;;
48777;SDS011;34578;0.000;0.000;2023-07-31T20:03:27;4.68;;;2.10;;
48777;SDS011;34578;0.000;0.000;2023-07-31T20:08:27;3.03;;;2.10;;
48777;SDS011;34578;0.000;0.000;2023-07-31T20:13:28;2.53;;;1.40;;
48777;SDS011;34578;0.000;0.000;2023-07-31T20:18:30;3.15;;;2.00;;
48777;SDS011;34578;0.000;0.000;2023-07-31T20:23:31;6.63;;;3.00;;
48777;SDS011;34578;0.000;0.000;2023-07-31T20:28:31;7.67;;;2.60;;
48777;SDS011;34578;0.000;0.000;2023-07-31T20:33:32;3.05;;;2.00;;
48777;SDS011;34578;0.000;0.000;2023-07-31T20:38:34;3.72;;;1.90;;
48777;SDS011;34578;0.000;0.000;2023-07-31T20:43:34;2.88;;;1.70;;
48777;SDS011;34578;0.000;0.000;2023-07-31T20:48:35;3.03;;;1.80;;
48777;SDS011;34578;0.000;0.000;2023-07-31T20:53:35;2.90;;;1.87;;
48777;SDS011;34578;0.000;0.000;2023-07-31T20:58:36;2.60;;;2.00;;
48777;SDS011;34578;0.000;0.000;2023-07-31T21:03:38;2.65;;;1.67;;
48777;SDS011;34578;0.000;0.000;2023-07-31T21:08:38;3.13;;;1.70;;
48777;SDS011;34578;0.000;0.000;2023-07-31T21:13:38;2.70;;;1.57;;
48777;SDS011;34578;0.000;0.000;2023-07-31T21:18:39;6.78;;;2.10;;
48777;SDS011;34578;0.000;0.000;2023-07-31T21:23:39;4.00;;;2.00;;
48777;SDS011;34578;0.000;0.000;2023-07-31T21:28:40;2.75;;;1.80;;
48777;SDS011;34578;0.000;0.000;2023-07-31T21:33:41;3.65;;;1.70;;
48777;SDS011;34578;0.000;0.000;2023-07-31T21:38:42;3.78;;;2.45;;
48777;SDS011;34578;0.000;0.000;2023-07-31T21:43:42;3.20;;;1.63;;
48777;SDS011;34578;0.000;0.000;2023-07-31T21:48:42;1.70;;;1.40;;
48777;SDS011;34578;0.000;0.000;2023-07-31T21:53:43;1.93;;;1.60;;
48777;SDS011;34578;0.000;0.000;2023-07-31T21:58:43;2.83;;;1.60;;
48777;SDS011;34578;0.000;0.000;2023-07-31T22:03:43;1.90;;;1.27;;
48777;SDS011;34578;0.000;0.000;2023-07-31T22:08:44;4.45;;;2.15;;
48777;SDS011;34578;0.000;0.000;2023-07-31T22:13:44;3.25;;;2.10;;
48777;SDS011;34578;0.000;0.000;2023-07-31T22:18:45;3.03;;;1.80;;
48777;SDS011;34578;0.000;0.000;2023-07-31T22:23:45;2.77;;;1.60;;
48777;SDS011;34578;0.000;0.000;2023-07-31T22:28:45;2.67;;;1.50;;
48777;SDS011;34578;0.000;0.000;2023-07-31T22:33:46;2.40;;;1.83;;
48777;SDS011;34578;0.000;0.000;2023-07-31T22:38:46;1.93;;;1.50;;
48777;SDS011;34578;0.000;0.000;2023-07-31T22:43:47;1.60;;;1.38;;
48777;SDS011;34578;0.000;0.000;2023-07-31T22:48:47;1.20;;;1.10;;
48777;SDS011;34578;0.000;0.000;2023-07-31T22:53:47;1.73;;;1.27;;
48777;SDS011;34578;0.000;0.000;2023-07-31T22:58:48;3.53;;;1.97;;
48777;SDS011;34578;0.000;0.000;2023-07-31T23:03:48;3.10;;;2.27;;
48777;SDS011;34578;0.000;0.000;2023-07-31T23:08:49;3.13;;;1.73;;
48777;SDS011;34578;0.000;0.000;2023-07-31T23:13:49;1.75;;;1.30;;
48777;SDS011;34578;0.000;0.000;2023-07-31T23:18:49;2.70;;;1.10;;
48777;SDS011;34578;0.000;0.000;2023-07-31T23:23:50;2.97;;;1.30;;
48777;SDS011;34578;0.000;0.000;2023-07-31T23:28:50;3.00;;;1.47;;
48777;SDS011;34578;0.000;0.000;2023-07-31T23:33:51;3.67;;;1.13;;
48777;SDS011;34578;0.000;0.000;2023-07-31T23:38:51;1.67;;;1.17;;
48777;SDS011;34578;0.000;0.000;2023-07-31T23:43:53;1.97;;;1.60;;
48777;SDS011;34578;0.000;0.000;2023-07-31T23:48:54;2.50;;;1.83;;
48777;SDS011;34578;0.000;0.000;2023-07-31T23:53:54;2.67;;;2.23;;
48777;SDS011;34578;0.000;0.000;2023-07-31T23:58:55;2.90;;;1.85;;
